Crossfield, Canada
Current Conditions -  °F | °C
As of 4:00 AM on Thursday 23 Oct 2014 (Local Time) from CYYC Reporting Station
Broken Clouds Broken Clouds  
Wind Chill: 46°   Ceiling: 24000
Heat Index: 48°   Visibility: 15mi
Dew Point: 36°   Wind: 6mph
Humidity: 62%   Direction: 190°S
Pressure: 29.53"   Gusts: NA
Location:  51.43°N, 114.03°W
Report Text: CYYC 231000Z 19005KT 15SM BKN240 09/02 A2953 RMK CI5 SLP008 DENSITY ALT 4100FT
Loading
Personal Weather Stations






























Interactive Weather Map
Tropical Storm Tracking
New forecast layout! Learn more

10-Day Weather Forecast

Advertisements
Track Severe Weather on mobile